Time;durP1;ratioP1;P1;durP2;ratioP2;P2;SDS_P1;SDS_P2;PMS_P1;PMS_P2;Temp;Humidity;BMP_temperature;BMP_pressure;BME280_temperature;BME280_humidity;BME280_pressure;Samples;Min_cycle;Max_cycle;Signal;HPM_P1;HPM_P2
2023/06/16 00:00:23;;;;;;;3.72;2.35;;;;;;;23.94;58.77;98487.84;2070671;28;20109;-53
2023/06/16 00:01:31;;;;;;;2.83;2.63;;;;;;;23.96;58.56;98490.31;2070133;28;20136;-52
2023/06/16 00:02:33;;;;;;;2.47;2.15;;;;;;;23.96;58.82;98484.88;2074017;28;20487;-52
2023/06/16 00:03:36;;;;;;;2.72;2.28;;;;;;;23.94;58.30;98493.28;2069544;28;20065;-54
2023/06/16 00:04:37;;;;;;;3.33;2.85;;;;;;;23.93;58.41;98486.22;2071411;28;20072;-54
2023/06/16 00:05:39;;;;;;;4.45;2.50;;;;;;;23.95;58.62;98489.47;2073296;28;20050;-53
2023/06/16 00:06:42;;;;;;;2.92;2.45;;;;;;;23.95;58.82;98486.78;2072236;28;20053;-56
2023/06/16 00:07:44;;;;;;;3.65;2.60;;;;;;;23.96;58.54;98483.03;2066893;28;20049;-55
2023/06/16 00:08:48;;;;;;;2.25;2.05;;;;;;;23.96;58.46;98485.72;2067161;28;20145;-54
2023/06/16 00:09:50;;;;;;;3.47;2.90;;;;;;;23.95;58.54;98489.47;2071953;28;20506;-52
2023/06/16 00:10:52;;;;;;;3.65;2.45;;;;;;;23.95;58.43;98483.25;2070908;28;20577;-54
2023/06/16 00:11:53;;;;;;;3.67;2.55;;;;;;;23.94;58.47;98482.44;2071990;28;20048;-55
2023/06/16 00:12:54;;;;;;;1.77;1.67;;;;;;;23.92;58.78;98478.31;2072933;28;20111;-54
2023/06/16 00:13:57;;;;;;;2.35;2.15;;;;;;;23.92;58.31;98483.72;2070217;28;20108;-51
2023/06/16 00:14:58;;;;;;;2.67;2.35;;;;;;;23.91;58.52;98482.91;2069815;28;20582;-54
2023/06/16 00:16:00;;;;;;;3.00;2.50;;;;;;;23.93;58.45;98485.38;2074226;28;20050;-55
2023/06/16 00:17:03;;;;;;;2.58;2.10;;;;;;;23.94;58.84;98487.03;2071917;28;20128;-55
2023/06/16 00:18:05;;;;;;;3.15;2.78;;;;;;;23.96;58.64;98482.19;2072065;28;20080;-55
2023/06/16 00:19:06;;;;;;;3.17;2.35;;;;;;;23.96;58.37;98483.03;2070344;28;20046;-53
2023/06/16 00:20:10;;;;;;;2.58;2.35;;;;;;;23.97;58.62;98481.94;2072768;28;20622;-54
2023/06/16 00:21:13;;;;;;;2.30;1.95;;;;;;;23.95;58.66;98483.25;2072388;28;20402;-53
2023/06/16 00:22:15;;;;;;;2.15;2.00;;;;;;;23.94;58.47;98484.31;2070366;28;20053;-52
2023/06/16 00:23:16;;;;;;;3.28;2.67;;;;;;;23.92;58.51;98484.56;2070755;28;20153;-55
2023/06/16 00:24:20;;;;;;;2.33;2.13;;;;;;;23.93;58.72;98488.94;2073480;28;20077;-50
2023/06/16 00:25:20;;;;;;;2.75;2.50;;;;;;;23.92;58.67;98483.72;2069781;28;20585;-54
2023/06/16 00:26:23;;;;;;;3.58;2.70;;;;;;;23.91;58.70;98485.63;2070282;28;20050;-55
2023/06/16 00:27:24;;;;;;;3.33;2.80;;;;;;;23.92;58.61;98481.84;2072551;28;20145;-53
2023/06/16 00:28:26;;;;;;;2.88;2.67;;;;;;;23.92;58.58;98483.72;2073879;28;20053;-54
2023/06/16 00:29:26;;;;;;;3.20;2.40;;;;;;;23.92;58.34;98487.25;2070831;28;20044;-50
2023/06/16 00:30:28;;;;;;;2.70;2.50;;;;;;;23.93;58.63;98488.06;2072223;28;20136;-53
2023/06/16 00:31:31;;;;;;;3.08;2.42;;;;;;;23.92;58.66;98483.72;2070489;28;20447;-54
2023/06/16 00:32:33;;;;;;;2.80;2.33;;;;;;;23.92;58.49;98489.16;2067889;28;20048;-50
2023/06/16 00:33:34;;;;;;;3.58;2.67;;;;;;;23.90;58.84;98488.56;2064919;28;20045;-54
2023/06/16 00:34:35;;;;;;;3.50;2.33;;;;;;;23.90;58.76;98481.25;2069117;28;20132;-55
2023/06/16 00:35:36;;;;;;;2.75;2.53;;;;;;;23.91;58.51;98487.53;2072125;28;20420;-54
2023/06/16 00:36:38;;;;;;;3.05;2.25;;;;;;;23.92;58.65;98483.72;2074086;28;20059;-55
2023/06/16 00:37:39;;;;;;;3.33;2.55;;;;;;;23.91;58.65;98484.81;2069051;28;20481;-53
2023/06/16 00:38:40;;;;;;;2.75;2.25;;;;;;;23.91;58.81;98482.09;2071413;28;20060;-49
2023/06/16 00:39:43;;;;;;;2.63;2.40;;;;;;;23.91;58.39;98482.91;2071045;28;21804;-52
2023/06/16 00:40:44;;;;;;;2.63;2.42;;;;;;;23.91;58.50;98484.81;2073260;28;20057;-51
2023/06/16 00:41:45;;;;;;;3.00;2.70;;;;;;;23.90;58.50;98481.25;2072470;28;20080;-53
2023/06/16 00:42:47;;;;;;;2.30;2.10;;;;;;;23.91;58.42;98479.41;2071673;28;20042;-49
2023/06/16 00:43:48;;;;;;;3.17;2.35;;;;;;;23.91;58.31;98484.81;2069934;28;20081;-50
2023/06/16 00:44:50;;;;;;;2.58;2.38;;;;;;;23.92;58.71;98489.16;2070860;28;20052;-55
2023/06/16 00:45:51;;;;;;;2.30;1.92;;;;;;;23.91;58.35;98482.91;2070008;28;20050;-54
2023/06/16 00:46:53;;;;;;;2.33;2.10;;;;;;;23.89;58.59;98481.50;2071404;28;20135;-53
2023/06/16 00:47:54;;;;;;;3.25;2.45;;;;;;;23.90;58.42;98483.16;2070899;28;20080;-50
2023/06/16 00:48:57;;;;;;;2.72;2.25;;;;;;;23.89;58.25;98489.63;2071958;28;20045;-56
2023/06/16 00:50:00;;;;;;;2.67;2.38;;;;;;;23.88;58.81;98490.72;2071760;28;20054;-54
2023/06/16 00:51:00;;;;;;;3.28;2.97;;;;;;;23.88;58.51;98486.13;2068669;28;20052;-54
2023/06/16 00:52:03;;;;;;;2.42;2.22;;;;;;;23.90;58.49;98485.84;2070468;28;20045;-54
2023/06/16 00:53:04;;;;;;;3.83;2.83;;;;;;;23.89;58.54;98481.50;2072327;28;20140;-49
2023/06/16 00:54:07;;;;;;;2.92;2.33;;;;;;;23.88;58.26;98479.88;2072183;28;20071;-53
2023/06/16 00:55:11;;;;;;;3.95;2.78;;;;;;;23.88;58.42;98488.81;2069310;28;20052;-53
2023/06/16 00:56:13;;;;;;;2.92;2.10;;;;;;;23.87;58.61;98487.16;2071275;28;20054;-56
2023/06/16 00:57:13;;;;;;;2.88;2.40;;;;;;;23.86;58.53;98480.94;2070597;28;20137;-53
2023/06/16 00:58:17;;;;;;;2.60;2.40;;;;;;;23.86;58.51;98480.94;2069239;28;20057;-52
2023/06/16 00:59:18;;;;;;;2.50;2.30;;;;;;;23.87;58.46;98479.03;2071757;28;20057;-55
2023/06/16 01:00:20;;;;;;;2.45;2.15;;;;;;;23.89;58.67;98484.22;2072108;28;20085;-53
2023/06/16 01:01:24;;;;;;;2.70;2.22;;;;;;;23.90;58.46;98480.44;2071487;28;20109;-54
2023/06/16 01:02:26;;;;;;;3.17;2.30;;;;;;;23.88;58.54;98488.00;2069150;28;20120;-56
2023/06/16 01:03:27;;;;;;;2.97;2.47;;;;;;;23.87;58.21;98479.03;2070158;28;20083;-52
2023/06/16 01:04:29;;;;;;;2.83;2.58;;;;;;;23.85;58.48;98484.72;2071885;28;20042;-53
2023/06/16 01:05:32;;;;;;;3.75;2.40;;;;;;;23.86;58.21;98486.34;2071958;28;20847;-52
2023/06/16 01:06:51;;;;;;;3.58;2.58;;;;;;;23.86;58.64;98486.34;2070271;28;20046;-59
2023/06/16 01:08:01;;;;;;;4.38;3.00;;;;;;;23.86;58.28;98482.81;2071950;28;20976;-52
2023/06/16 01:09:09;;;;;;;5.07;2.42;;;;;;;23.85;58.63;98482.00;2071222;28;20048;-52
2023/06/16 01:10:17;;;;;;;3.13;2.58;;;;;;;23.86;58.51;98490.94;2071569;28;20902;-52
2023/06/16 01:11:29;;;;;;;3.78;2.28;;;;;;;23.84;58.56;98488.47;2068973;28;20092;-55
2023/06/16 01:12:37;;;;;;;2.88;2.67;;;;;;;23.86;58.74;98485.53;2068161;28;20041;-53
2023/06/16 01:13:49;;;;;;;3.28;2.88;;;;;;;23.87;58.41;98487.16;2070075;28;20073;-50
2023/06/16 01:14:59;;;;;;;3.22;2.30;;;;;;;23.85;58.60;98490.13;2074625;28;20057;-53
2023/06/16 01:16:03;;;;;;;2.42;2.22;;;;;;;23.83;58.43;98484.13;2071771;28;20049;-48
2023/06/16 01:17:06;;;;;;;2.50;2.30;;;;;;;23.86;58.33;98490.94;2070858;28;20494;-53
2023/06/16 01:18:10;;;;;;;2.95;2.60;;;;;;;23.88;58.31;98488.81;2062902;28;20164;-47
2023/06/16 01:19:19;;;;;;;3.50;2.50;;;;;;;23.88;58.62;98485.31;2071296;28;20415;-53
2023/06/16 01:20:28;;;;;;;3.00;2.50;;;;;;;23.84;58.48;98480.34;2067941;28;20652;-52
2023/06/16 01:21:40;;;;;;;2.63;2.40;;;;;;;23.85;58.72;98487.41;2073135;28;20077;-49
2023/06/16 01:22:56;;;;;;;2.90;2.60;;;;;;;23.82;58.68;98479.78;2070867;28;20037;-51
2023/06/16 01:24:05;;;;;;;2.45;2.08;;;;;;;23.85;58.52;98484.72;2070231;28;20515;-52
2023/06/16 01:25:09;;;;;;;2.70;2.33;;;;;;;23.85;58.56;98482.00;2070933;28;20059;-54
2023/06/16 01:26:13;;;;;;;4.28;2.38;;;;;;;23.88;58.35;98482.59;2070145;28;20058;-48
2023/06/16 01:27:21;;;;;;;2.90;2.70;;;;;;;23.86;58.21;98480.94;2070467;28;20053;-50
2023/06/16 01:28:25;;;;;;;2.63;2.42;;;;;;;23.85;58.39;98479.28;2070758;28;20407;-53
2023/06/16 01:29:28;;;;;;;5.22;2.85;;;;;;;23.87;58.41;98481.75;2071418;28;20049;-53
2023/06/16 01:30:32;;;;;;;4.28;3.10;;;;;;;23.85;58.14;98479.28;2069769;28;20046;-53
2023/06/16 01:31:35;;;;;;;2.92;2.60;;;;;;;23.84;58.13;98483.03;2070112;28;20099;-54
2023/06/16 01:32:36;;;;;;;2.58;2.38;;;;;;;23.86;58.45;98486.34;2071328;28;20056;-48
2023/06/16 01:33:38;;;;;;;6.60;2.85;;;;;;;23.86;58.45;98486.34;2072601;28;20491;-50
2023/06/16 01:34:40;;;;;;;2.33;2.05;;;;;;;23.85;58.22;98483.91;2073307;28;20061;-51
2023/06/16 01:35:43;;;;;;;2.90;2.42;;;;;;;23.85;58.59;98492.84;2070652;28;21397;-48
2023/06/16 01:36:45;;;;;;;2.33;2.13;;;;;;;23.85;58.48;98484.72;2071547;28;20064;-54
2023/06/16 01:37:48;;;;;;;3.20;2.30;;;;;;;23.85;58.50;98489.31;2074578;28;20049;-54
2023/06/16 01:38:50;;;;;;;2.30;2.10;;;;;;;23.86;58.52;98483.63;2070138;28;20500;-50
2023/06/16 01:39:54;;;;;;;3.70;2.80;;;;;;;23.86;58.28;98486.34;2071944;28;20388;-54
2023/06/16 01:40:55;;;;;;;3.85;2.25;;;;;;;23.84;58.53;98488.47;2072087;28;20065;-48
2023/06/16 01:41:59;;;;;;;2.50;2.30;;;;;;;23.84;58.53;98485.75;2072419;28;20133;-51
2023/06/16 01:43:01;;;;;;;2.40;2.15;;;;;;;23.81;58.26;98486.25;2070932;28;20053;-50
2023/06/16 01:44:04;;;;;;;2.70;2.50;;;;;;;23.83;58.59;98491.44;2070657;28;20041;-50
2023/06/16 01:45:07;;;;;;;3.42;2.10;;;;;;;23.85;58.52;98486.59;2076061;28;20077;-48
2023/06/16 01:46:09;;;;;;;4.20;2.38;;;;;;;23.85;58.46;98486.59;2071421;28;21339;-52
2023/06/16 01:47:10;;;;;;;2.50;2.20;;;;;;;23.82;58.70;98482.50;2072450;28;20605;-51
2023/06/16 01:48:12;;;;;;;3.15;2.55;;;;;;;23.82;58.31;98482.50;2071191;28;21087;-47
2023/06/16 01:49:14;;;;;;;2.50;2.30;;;;;;;23.84;58.31;98483.03;2071315;28;20526;-50
2023/06/16 01:50:17;;;;;;;3.25;2.75;;;;;;;23.83;58.49;98480.59;2070118;28;20069;-50
2023/06/16 01:51:18;;;;;;;3.22;2.42;;;;;;;23.83;58.47;98478.69;2071151;28;20076;-47
2023/06/16 01:52:21;;;;;;;2.40;2.20;;;;;;;23.83;58.37;98484.13;2069942;28;20132;-48
2023/06/16 01:53:22;;;;;;;2.65;2.45;;;;;;;23.82;58.31;98479.78;2071581;28;20554;-52
2023/06/16 01:54:24;;;;;;;3.67;3.00;;;;;;;23.82;58.68;98482.50;2071940;28;20061;-50
2023/06/16 01:55:26;;;;;;;3.20;2.75;;;;;;;23.82;58.39;98473.50;2072599;28;20064;-50
2023/06/16 01:56:30;;;;;;;3.17;2.83;;;;;;;23.81;58.43;98470.00;2069914;28;20582;-52
2023/06/16 01:57:30;;;;;;;2.53;2.20;;;;;;;23.82;58.26;98473.50;2072698;28;20053;-52
2023/06/16 01:58:34;;;;;;;3.42;2.85;;;;;;;23.85;58.71;98473.88;2071155;28;20154;-48
2023/06/16 01:59:34;;;;;;;2.88;2.63;;;;;;;23.83;58.17;98469.75;2071941;28;20053;-51
2023/06/16 02:00:40;;;;;;;3.10;2.72;;;;;;;23.80;58.48;98468.34;2070650;28;20588;-51
2023/06/16 02:01:49;;;;;;;3.40;2.97;;;;;;;23.82;58.52;98465.38;2071070;28;20494;-50
2023/06/16 02:02:54;;;;;;;3.38;2.28;;;;;;;23.80;58.27;98472.97;2074995;28;20103;-54
2023/06/16 02:03:59;;;;;;;3.65;2.92;;;;;;;23.81;58.48;98466.47;2073277;28;20423;-54
2023/06/16 02:05:04;;;;;;;2.83;2.45;;;;;;;23.80;58.34;98467.53;2070930;28;20045;-50
2023/06/16 02:06:11;;;;;;;3.10;2.83;;;;;;;23.81;58.50;98469.16;2071720;28;20526;-50
2023/06/16 02:07:15;;;;;;;3.75;2.75;;;;;;;23.81;58.33;98467.28;2071501;28;20053;-49
2023/06/16 02:08:20;;;;;;;2.85;2.55;;;;;;;23.79;58.39;98469.44;2071454;28;20503;-49
2023/06/16 02:09:26;;;;;;;3.13;2.40;;;;;;;23.79;58.33;98469.44;2069640;28;20631;-50
2023/06/16 02:10:29;;;;;;;3.60;2.83;;;;;;;23.79;58.25;98469.44;2071584;28;20102;-55
2023/06/16 02:11:32;;;;;;;3.30;2.72;;;;;;;23.76;58.71;98460.94;2072402;28;21083;-53
2023/06/16 02:12:33;;;;;;;3.42;2.80;;;;;;;23.79;58.41;98465.88;2070186;28;20050;-47
2023/06/16 02:13:36;;;;;;;3.35;2.95;;;;;;;23.79;58.61;98466.72;2072246;28;20042;-52
2023/06/16 02:14:38;;;;;;;2.80;2.42;;;;;;;23.78;58.44;98473.19;2072256;28;20116;-47
2023/06/16 02:15:40;;;;;;;3.05;2.30;;;;;;;23.79;58.55;98461.31;2071493;28;20123;-50
2023/06/16 02:16:42;;;;;;;3.17;2.67;;;;;;;23.78;58.23;98467.78;2070376;28;20089;-50
2023/06/16 02:17:44;;;;;;;2.58;2.38;;;;;;;23.79;58.36;98463.16;2073073;28;20503;-55
2023/06/16 02:18:45;;;;;;;2.72;2.53;;;;;;;23.78;58.68;98465.06;2073021;28;20081;-53
2023/06/16 02:19:48;;;;;;;2.95;2.60;;;;;;;23.77;58.38;98468.03;2072688;28;20046;-52
2023/06/16 02:20:49;;;;;;;3.47;2.85;;;;;;;23.77;58.33;98468.03;2068618;28;20284;-55
2023/06/16 02:21:50;;;;;;;3.42;2.40;;;;;;;23.78;58.36;98465.06;2072561;28;20488;-48
2023/06/16 02:22:51;;;;;;;2.90;2.63;;;;;;;23.77;58.64;98466.13;2069815;28;20049;-52
2023/06/16 02:23:53;;;;;;;3.45;3.15;;;;;;;23.78;58.52;98469.66;2070878;28;20050;-52
2023/06/16 02:24:54;;;;;;;2.40;2.20;;;;;;;23.78;58.23;98466.94;2071822;28;20072;-54
2023/06/16 02:25:57;;;;;;;3.03;2.47;;;;;;;23.79;58.27;98469.44;2073285;28;20048;-54
2023/06/16 02:26:58;;;;;;;2.90;2.60;;;;;;;23.78;58.30;98467.78;2071947;28;20132;-54
2023/06/16 02:28:00;;;;;;;2.67;2.38;;;;;;;23.78;58.26;98470.47;2073786;28;20045;-49
2023/06/16 02:29:01;;;;;;;3.17;2.53;;;;;;;23.76;58.32;98464.47;2072470;28;20412;-47
2023/06/16 02:30:04;;;;;;;2.95;2.67;;;;;;;23.77;58.53;98468.84;2071330;28;20056;-51
2023/06/16 02:31:05;;;;;;;3.80;2.88;;;;;;;23.76;58.79;98463.66;2073158;28;20546;-54
2023/06/16 02:32:07;;;;;;;2.40;2.20;;;;;;;23.75;58.54;98467.44;2071356;28;20053;-49
2023/06/16 02:33:08;;;;;;;2.78;2.58;;;;;;;23.78;58.67;98466.94;2069120;28;20046;-53
2023/06/16 02:34:10;;;;;;;3.88;2.83;;;;;;;23.78;58.54;98466.94;2071057;28;20520;-51
2023/06/16 02:35:11;;;;;;;2.45;2.25;;;;;;;23.80;58.65;98470.25;2070918;28;20481;-49
2023/06/16 02:36:13;;;;;;;2.88;2.25;;;;;;;23.78;58.43;98466.94;2074950;28;20053;-48
2023/06/16 02:37:14;;;;;;;2.53;2.33;;;;;;;23.76;58.46;98475.31;2071964;28;20057;-49
2023/06/16 02:38:16;;;;;;;2.97;2.50;;;;;;;23.76;58.68;98475.31;2070534;28;20297;-52
2023/06/16 02:39:18;;;;;;;2.83;2.63;;;;;;;23.74;58.50;98474.75;2072293;28;22024;-52
2023/06/16 02:40:20;;;;;;;2.50;2.30;;;;;;;23.76;58.23;98472.59;2074213;28;20053;-52
2023/06/16 02:41:22;;;;;;;2.60;2.40;;;;;;;23.76;58.46;98469.88;2071836;28;20045;-53
2023/06/16 02:42:24;;;;;;;2.78;2.58;;;;;;;23.78;58.55;98469.66;2070099;28;20042;-52
2023/06/16 02:43:25;;;;;;;2.40;2.20;;;;;;;23.77;58.37;98465.31;2072488;28;20954;-50
2023/06/16 02:44:27;;;;;;;3.50;2.40;;;;;;;23.77;58.52;98471.56;2071846;28;20546;-52
2023/06/16 02:45:27;;;;;;;2.63;2.42;;;;;;;23.77;58.50;98470.72;2070658;28;20080;-53
2023/06/16 02:46:29;;;;;;;3.40;2.85;;;;;;;23.77;58.39;98473.44;2071502;28;20042;-51
2023/06/16 02:47:30;;;;;;;2.85;2.53;;;;;;;23.77;58.28;98470.72;2073659;28;20088;-52
2023/06/16 02:48:32;;;;;;;4.75;2.85;;;;;;;23.77;58.35;98466.13;2072090;28;20415;-54
2023/06/16 02:49:33;;;;;;;3.17;2.83;;;;;;;23.75;58.37;98473.66;2073075;28;20057;-49
2023/06/16 02:50:34;;;;;;;2.55;2.35;;;;;;;23.79;58.25;98474.00;2072481;28;20510;-52
2023/06/16 02:51:36;;;;;;;2.40;2.20;;;;;;;23.74;58.49;98472.03;2070889;28;20083;-56
2023/06/16 02:52:41;;;;;;;2.33;2.13;;;;;;;23.74;58.39;98471.22;2076059;28;20049;-52
2023/06/16 02:53:45;;;;;;;2.88;2.65;;;;;;;23.72;58.58;98471.44;2073325;28;20420;-51
2023/06/16 02:54:46;;;;;;;4.00;2.80;;;;;;;23.71;58.57;98472.53;2072436;28;20590;-53
2023/06/16 02:55:47;;;;;;;2.17;1.98;;;;;;;23.74;58.44;98476.63;2074656;28;20056;-54
2023/06/16 02:56:50;;;;;;;2.88;2.67;;;;;;;23.75;58.30;98473.66;2072804;28;20084;-51
2023/06/16 02:57:51;;;;;;;2.45;2.20;;;;;;;23.76;58.40;98475.31;2072202;28;20053;-55
2023/06/16 02:58:53;;;;;;;2.63;2.30;;;;;;;23.75;58.62;98478.28;2072639;28;20053;-51
2023/06/16 02:59:55;;;;;;;3.10;2.72;;;;;;;23.73;58.26;98470.38;2072003;28;20144;-54
2023/06/16 03:00:57;;;;;;;2.25;2.05;;;;;;;23.74;58.34;98472.03;2069735;28;20049;-48
2023/06/16 03:01:58;;;;;;;2.55;2.28;;;;;;;23.75;58.59;98470.16;2073235;28;20050;-51
2023/06/16 03:02:59;;;;;;;2.63;2.38;;;;;;;23.74;58.40;98472.03;2071545;28;20156;-48
2023/06/16 03:04:00;;;;;;;2.78;2.47;;;;;;;23.73;58.19;98477.69;2071942;28;20061;-51
2023/06/16 03:05:03;;;;;;;2.67;2.47;;;;;;;23.74;58.45;98477.44;2070029;28;20554;-52
2023/06/16 03:06:04;;;;;;;2.75;2.55;;;;;;;23.73;58.28;98475.78;2070625;28;20189;-53
2023/06/16 03:07:06;;;;;;;2.55;2.33;;;;;;;23.72;58.38;98470.63;2071596;28;20057;-50
2023/06/16 03:08:07;;;;;;;3.90;3.17;;;;;;;23.72;58.50;98476.03;2070404;28;20518;-54
2023/06/16 03:09:09;;;;;;;2.47;2.28;;;;;;;23.73;58.35;98477.69;2069350;28;20049;-48
2023/06/16 03:10:10;;;;;;;2.88;2.58;;;;;;;23.74;58.42;98477.44;2070898;28;20229;-52
2023/06/16 03:11:12;;;;;;;2.47;2.10;;;;;;;23.75;58.17;98479.09;2073872;28;20590;-52
2023/06/16 03:12:14;;;;;;;2.58;2.35;;;;;;;23.74;58.25;98476.63;2068404;28;20050;-55
2023/06/16 03:13:16;;;;;;;3.58;2.20;;;;;;;23.73;58.55;98475.78;2071363;28;20509;-48
2023/06/16 03:14:17;;;;;;;2.53;2.15;;;;;;;23.75;58.53;98480.97;2069818;28;20054;-55
2023/06/16 03:15:23;;;;;;;2.60;2.38;;;;;;;23.74;58.22;98474.75;2071884;28;20049;-52
2023/06/16 03:16:27;;;;;;;2.97;2.30;;;;;;;23.70;58.52;98478.94;2072343;28;20054;-53
2023/06/16 03:17:28;;;;;;;2.50;2.15;;;;;;;23.71;58.65;98477.09;2073190;28;20049;-54
2023/06/16 03:18:29;;;;;;;2.90;2.67;;;;;;;23.71;58.42;98477.94;2073633;28;20056;-52
2023/06/16 03:19:31;;;;;;;3.17;2.70;;;;;;;23.74;58.42;98480.16;2070118;28;20156;-52
2023/06/16 03:20:34;;;;;;;4.07;2.83;;;;;;;23.73;58.43;98483.09;2071548;28;20052;-53
2023/06/16 03:21:37;;;;;;;3.20;2.90;;;;;;;23.71;58.64;98472.53;2071299;28;20052;-52
2023/06/16 03:22:37;;;;;;;3.30;2.78;;;;;;;23.73;58.26;98474.97;2071159;28;20416;-49
2023/06/16 03:23:41;;;;;;;3.13;2.58;;;;;;;23.74;58.15;98474.75;2071344;28;20135;-51
2023/06/16 03:24:43;;;;;;;2.90;2.60;;;;;;;23.74;58.41;98471.22;2071241;28;20073;-51
2023/06/16 03:25:44;;;;;;;2.65;2.45;;;;;;;23.73;58.47;98473.06;2071807;28;20049;-51
2023/06/16 03:26:46;;;;;;;2.45;2.25;;;;;;;23.72;58.08;98479.56;2070732;28;20085;-50
2023/06/16 03:27:49;;;;;;;2.63;2.42;;;;;;;23.72;58.26;98476.03;2070896;28;20050;-48
2023/06/16 03:28:50;;;;;;;2.72;2.45;;;;;;;23.69;58.43;98473.78;2072900;28;20088;-49
2023/06/16 03:29:52;;;;;;;2.97;2.70;;;;;;;23.69;58.37;98477.31;2068936;28;20076;-51
2023/06/16 03:30:53;;;;;;;2.88;2.30;;;;;;;23.70;58.47;98481.66;2072691;28;20175;-52
2023/06/16 03:31:55;;;;;;;2.95;2.55;;;;;;;23.69;58.37;98473.78;2071556;28;20061;-52
2023/06/16 03:32:56;;;;;;;3.15;1.85;;;;;;;23.69;58.44;98479.22;2073518;28;20124;-50
2023/06/16 03:33:57;;;;;;;2.60;2.40;;;;;;;23.69;58.32;98471.91;2070810;28;20416;-49
2023/06/16 03:34:58;;;;;;;2.88;2.58;;;;;;;23.69;58.50;98481.91;2074315;28;20145;-51
2023/06/16 03:36:00;;;;;;;6.50;2.63;;;;;;;23.69;58.60;98485.44;2070866;28;20053;-53
2023/06/16 03:37:02;;;;;;;3.15;2.47;;;;;;;23.66;58.29;98479.69;2072519;28;20054;-49
2023/06/16 03:38:03;;;;;;;3.45;2.53;;;;;;;23.65;58.64;98478.84;2070472;28;20068;-47
2023/06/16 03:39:05;;;;;;;3.28;2.97;;;;;;;23.65;58.64;98478.84;2070178;28;20129;-49
2023/06/16 03:40:07;;;;;;;3.30;2.92;;;;;;;23.67;58.49;98479.44;2069455;28;20049;-51
2023/06/16 03:41:09;;;;;;;5.47;2.63;;;;;;;23.65;58.71;98478.84;2071203;28;20053;-50
2023/06/16 03:42:10;;;;;;;2.75;2.55;;;;;;;23.66;58.39;98480.50;2071119;28;20054;-48
2023/06/16 03:43:13;;;;;;;2.90;2.63;;;;;;;23.64;58.41;98475.31;2070988;28;20038;-50
2023/06/16 03:44:14;;;;;;;2.60;2.40;;;;;;;23.66;58.65;98474.28;2072583;28;20064;-49
2023/06/16 03:45:16;;;;;;;2.55;2.15;;;;;;;23.67;58.52;98478.63;2071946;28;20538;-49
2023/06/16 03:46:17;;;;;;;3.20;2.75;;;;;;;23.66;58.34;98480.50;2069269;28;20455;-49
2023/06/16 03:47:19;;;;;;;2.60;2.30;;;;;;;23.66;58.58;98480.50;2073108;28;20049;-50
2023/06/16 03:48:20;;;;;;;2.85;2.47;;;;;;;23.72;58.49;98478.75;2070930;28;20420;-48
2023/06/16 03:49:22;;;;;;;2.75;2.50;;;;;;;23.71;58.61;98483.34;2071883;28;20050;-47
2023/06/16 03:50:22;;;;;;;2.45;2.25;;;;;;;23.69;58.35;98480.03;2071077;28;20616;-51
2023/06/16 03:51:24;;;;;;;2.53;2.33;;;;;;;23.66;58.12;98483.22;2071353;28;20061;-49
2023/06/16 03:52:25;;;;;;;3.28;2.60;;;;;;;23.67;58.49;98487.56;2070430;28;20295;-52
2023/06/16 03:53:28;;;;;;;2.47;2.28;;;;;;;23.67;58.45;98490.25;2070531;28;20045;-48
2023/06/16 03:54:29;;;;;;;3.30;3.00;;;;;;;23.65;58.33;98484.25;2071336;28;20073;-54
2023/06/16 03:55:31;;;;;;;2.80;2.50;;;;;;;23.64;58.56;98482.63;2071272;28;20049;-52
2023/06/16 03:56:32;;;;;;;3.78;2.95;;;;;;;23.66;58.56;98494.03;2071660;28;20049;-50
2023/06/16 03:57:35;;;;;;;2.47;2.28;;;;;;;23.67;58.44;98486.75;2072772;28;20072;-52
2023/06/16 03:58:37;;;;;;;2.50;2.30;;;;;;;23.66;58.61;98485.09;2072471;28;20317;-54
2023/06/16 03:59:38;;;;;;;2.40;2.20;;;;;;;23.65;58.60;98492.38;2074035;28;20049;-52
2023/06/16 04:00:40;;;;;;;2.92;2.40;;;;;;;23.64;58.36;98493.47;2068422;28;20057;-49
2023/06/16 04:01:42;;;;;;;2.65;2.45;;;;;;;23.64;58.35;98496.16;2072440;28;20397;-50
2023/06/16 04:02:43;;;;;;;2.38;2.17;;;;;;;23.63;58.44;98489.13;2070620;28;20041;-49
2023/06/16 04:03:45;;;;;;;3.08;2.78;;;;;;;23.63;58.58;98487.22;2071619;28;20538;-49
2023/06/16 04:04:47;;;;;;;2.40;2.20;;;;;;;23.65;58.54;98492.38;2070541;28;20140;-51
2023/06/16 04:05:49;;;;;;;2.83;2.45;;;;;;;23.64;58.53;98493.47;2072066;28;20049;-51
2023/06/16 04:06:50;;;;;;;2.10;1.77;;;;;;;23.62;58.47;98496.41;2069209;28;20060;-50
2023/06/16 04:07:54;;;;;;;2.80;2.53;;;;;;;23.62;58.65;98491.00;2072680;28;20057;-51
2023/06/16 04:08:57;;;;;;;2.40;2.20;;;;;;;23.63;58.71;98491.81;2069247;28;20049;-49
2023/06/16 04:09:58;;;;;;;2.63;2.00;;;;;;;23.63;58.48;98498.06;2069987;28;20137;-49
2023/06/16 04:10:59;;;;;;;2.58;2.38;;;;;;;23.66;58.47;98487.81;2071101;28;20045;-50
2023/06/16 04:12:01;;;;;;;2.65;2.45;;;;;;;23.66;58.30;98485.94;2071101;28;20046;-51
2023/06/16 04:13:02;;;;;;;2.83;2.63;;;;;;;23.64;58.43;98488.03;2072345;28;20423;-50
2023/06/16 04:14:05;;;;;;;2.30;2.10;;;;;;;23.61;58.31;98494.75;2071919;28;20050;-49
2023/06/16 04:15:06;;;;;;;3.10;2.72;;;;;;;23.61;58.35;98494.75;2069929;28;20118;-51
2023/06/16 04:16:08;;;;;;;2.90;2.70;;;;;;;23.63;58.53;98492.63;2072337;28;20064;-50
2023/06/16 04:17:09;;;;;;;2.97;2.45;;;;;;;23.65;58.48;98489.69;2070155;28;20057;-51
2023/06/16 04:18:11;;;;;;;2.40;2.20;;;;;;;23.66;58.55;98496.75;2071711;28;20104;-48
2023/06/16 04:19:12;;;;;;;2.20;1.92;;;;;;;23.66;58.32;98491.34;2071657;28;20093;-50
2023/06/16 04:20:14;;;;;;;2.45;2.25;;;;;;;23.64;58.41;98482.63;2069945;28;20049;-49
2023/06/16 04:21:15;;;;;;;2.78;2.30;;;;;;;23.62;58.72;98485.59;2071065;28;20052;-51
2023/06/16 04:22:16;;;;;;;2.65;2.45;;;;;;;23.63;58.35;98486.41;2071556;28;20071;-47
2023/06/16 04:23:17;;;;;;;2.55;2.30;;;;;;;23.64;58.37;98488.03;2070449;28;20147;-51
2023/06/16 04:24:19;;;;;;;2.30;2.10;;;;;;;23.64;58.44;98493.47;2072210;28;20049;-49
2023/06/16 04:25:21;;;;;;;2.55;2.17;;;;;;;23.63;58.36;98492.63;2070066;28;20072;-48
2023/06/16 04:26:26;;;;;;;2.17;1.98;;;;;;;23.62;58.57;98499.13;2070780;28;20392;-50
2023/06/16 04:27:28;;;;;;;2.45;2.25;;;;;;;23.63;58.58;98491.81;2072583;28;20049;-50
2023/06/16 04:28:30;;;;;;;2.90;2.42;;;;;;;23.61;58.61;98491.22;2069651;28;20527;-51
2023/06/16 04:29:32;;;;;;;2.38;2.20;;;;;;;23.62;58.63;98490.16;2071276;28;20052;-51
2023/06/16 04:30:36;;;;;;;2.67;2.47;;;;;;;23.65;58.47;98495.09;2069692;28;20054;-50
2023/06/16 04:31:37;;;;;;;2.30;2.13;;;;;;;23.59;58.53;98487.94;2070239;28;20148;-50
2023/06/16 04:32:38;;;;;;;2.80;2.45;;;;;;;23.61;58.50;98500.16;2069818;28;20853;-52
2023/06/16 04:33:41;;;;;;;2.40;2.20;;;;;;;23.62;58.65;98492.88;2069623;28;20296;-50
2023/06/16 04:34:43;;;;;;;2.40;2.20;;;;;;;23.61;58.42;98489.34;2072890;28;20053;-50
2023/06/16 04:35:44;;;;;;;2.53;2.30;;;;;;;23.63;58.13;98491.81;2071090;28;20287;-51
2023/06/16 04:36:46;;;;;;;2.70;2.40;;;;;;;23.64;58.46;98494.28;2071347;28;20092;-47
2023/06/16 04:37:47;;;;;;;2.72;2.53;;;;;;;23.65;58.42;98495.09;2070702;28;20618;-48
2023/06/16 04:38:48;;;;;;;2.20;2.00;;;;;;;23.64;58.30;98496.97;2073377;28;20057;-51
2023/06/16 04:39:49;;;;;;;3.08;2.45;;;;;;;23.63;58.48;98492.63;2069703;28;20057;-50
2023/06/16 04:40:51;;;;;;;2.58;2.38;;;;;;;23.64;58.50;98494.28;2069254;28;20054;-48
2023/06/16 04:41:52;;;;;;;2.30;2.10;;;;;;;23.64;58.46;98499.69;2072015;28;20077;-48
2023/06/16 04:42:54;;;;;;;2.47;2.15;;;;;;;23.66;58.45;98501.34;2071383;28;20049;-50
2023/06/16 04:43:55;;;;;;;2.53;2.33;;;;;;;23.64;58.42;98496.97;2071375;28;20046;-50
2023/06/16 04:44:59;;;;;;;2.42;2.22;;;;;;;23.65;58.17;98497.78;2070252;28;20499;-51
2023/06/16 04:46:00;;;;;;;2.63;2.42;;;;;;;23.64;58.44;98493.47;2069363;28;20475;-50
2023/06/16 04:47:02;;;;;;;1.92;1.77;;;;;;;23.65;58.12;98503.22;2070060;28;20049;-52
2023/06/16 04:48:03;;;;;;;3.03;2.47;;;;;;;23.64;58.09;98499.69;2067773;28;20052;-48
2023/06/16 04:49:04;;;;;;;2.40;2.20;;;;;;;23.64;58.41;98507.81;2069957;28;20504;-51
2023/06/16 04:50:06;;;;;;;2.78;2.25;;;;;;;23.62;58.42;98503.69;2071409;28;20467;-48
2023/06/16 04:51:08;;;;;;;2.63;2.38;;;;;;;23.59;58.48;98509.59;2070705;28;20056;-48
2023/06/16 04:52:09;;;;;;;2.70;2.50;;;;;;;23.60;58.19;98505.84;2072536;28;20049;-50
2023/06/16 04:53:11;;;;;;;3.08;2.78;;;;;;;23.63;58.63;98510.78;2069920;28;20492;-49
2023/06/16 04:54:12;;;;;;;2.47;2.15;;;;;;;23.63;58.41;98513.47;2073585;28;20215;-49